sensor_id;sensor_type;location;lat;lon;timestamp;P1;P2;P0
47079;PMS5003;33067;49.296;14.470;2024-03-23T00:53:21;42;38;
47079;PMS5003;33067;49.296;14.470;2024-03-23T00:55:46;42;40;
47079;PMS5003;33067;49.296;14.470;2024-03-23T00:58:11;40;39;
47079;PMS5003;33067;49.296;14.470;2024-03-23T01:00:37;34;32;
47079;PMS5003;33067;49.296;14.470;2024-03-23T01:03:02;33;33;
47079;PMS5003;33067;49.296;14.470;2024-03-23T01:05:27;38;34;
47079;PMS5003;33067;49.296;14.470;2024-03-23T01:07:53;40;37;
47079;PMS5003;33067;49.296;14.470;2024-03-23T01:10:19;47;41;
47079;PMS5003;33067;49.296;14.470;2024-03-23T01:12:44;32;30;
47079;PMS5003;33067;49.296;14.470;2024-03-23T01:15:10;35;33;
47079;PMS5003;33067;49.296;14.470;2024-03-23T01:17:35;41;37;
47079;PMS5003;33067;49.296;14.470;2024-03-23T01:20:00;40;39;
47079;PMS5003;33067;49.296;14.470;2024-03-23T01:22:26;33;31;
47079;PMS5003;33067;49.296;14.470;2024-03-23T01:24:51;36;34;
47079;PMS5003;33067;49.296;14.470;2024-03-23T01:27:16;43;40;
47079;PMS5003;33067;49.296;14.470;2024-03-23T01:29:42;42;40;
47079;PMS5003;33067;49.296;14.470;2024-03-23T01:32:08;43;39;
47079;PMS5003;33067;49.296;14.470;2024-03-23T01:34:33;121;108;
47079;PMS5003;33067;49.296;14.470;2024-03-23T01:36:58;101;94;
47079;PMS5003;33067;49.296;14.470;2024-03-23T01:39:24;106;95;
47079;PMS5003;33067;49.296;14.470;2024-03-23T01:41:49;100;91;
47079;PMS5003;33067;49.296;14.470;2024-03-23T01:44:14;63;60;
47079;PMS5003;33067;49.296;14.470;2024-03-23T01:46:39;67;59;
47079;PMS5003;33067;49.296;14.470;2024-03-23T01:49:05;55;54;
47079;PMS5003;33067;49.296;14.470;2024-03-23T01:51:30;70;65;
47079;PMS5003;33067;49.296;14.470;2024-03-23T01:53:55;66;63;
47079;PMS5003;33067;49.296;14.470;2024-03-23T01:56:20;44;43;
47079;PMS5003;33067;49.296;14.470;2024-03-23T01:58:46;48;44;
47079;PMS5003;33067;49.296;14.470;2024-03-23T02:01:11;48;44;
47079;PMS5003;33067;49.296;14.470;2024-03-23T02:03:36;33;31;
47079;PMS5003;33067;49.296;14.470;2024-03-23T02:06:02;36;35;
47079;PMS5003;33067;49.296;14.470;2024-03-23T02:08:28;36;31;
47079;PMS5003;33067;49.296;14.470;2024-03-23T02:10:53;42;33;
47079;PMS5003;33067;49.296;14.470;2024-03-23T02:13:18;34;33;
47079;PMS5003;33067;49.296;14.470;2024-03-23T02:15:44;44;41;
47079;PMS5003;33067;49.296;14.470;2024-03-23T02:18:09;51;47;
47079;PMS5003;33067;49.296;14.470;2024-03-23T02:20:35;46;42;
47079;PMS5003;33067;49.296;14.470;2024-03-23T02:23:00;42;35;
47079;PMS5003;33067;49.296;14.470;2024-03-23T02:25:25;43;38;
47079;PMS5003;33067;49.296;14.470;2024-03-23T02:27:50;33;33;
47079;PMS5003;33067;49.296;14.470;2024-03-23T02:30:16;40;39;
47079;PMS5003;33067;49.296;14.470;2024-03-23T02:32:41;45;42;
47079;PMS5003;33067;49.296;14.470;2024-03-23T02:35:07;38;33;
47079;PMS5003;33067;49.296;14.470;2024-03-23T02:37:32;40;38;
47079;PMS5003;33067;49.296;14.470;2024-03-23T02:39:57;45;43;
47079;PMS5003;33067;49.296;14.470;2024-03-23T02:42:23;48;43;
47079;PMS5003;33067;49.296;14.470;2024-03-23T02:44:49;40;39;
47079;PMS5003;33067;49.296;14.470;2024-03-23T02:47:20;43;39;
47079;PMS5003;33067;49.296;14.470;2024-03-23T02:49:40;46;41;
47079;PMS5003;33067;49.296;14.470;2024-03-23T02:52:05;39;39;
47079;PMS5003;33067;49.296;14.470;2024-03-23T02:54:30;54;49;
47079;PMS5003;33067;49.296;14.470;2024-03-23T02:56:55;41;41;
47079;PMS5003;33067;49.296;14.470;2024-03-23T02:59:21;47;44;
47079;PMS5003;33067;49.296;14.470;2024-03-23T03:01:46;40;36;
47079;PMS5003;33067;49.296;14.470;2024-03-23T03:04:12;50;43;
47079;PMS5003;33067;49.296;14.470;2024-03-23T03:06:38;44;40;
47079;PMS5003;33067;49.296;14.470;2024-03-23T03:09:03;35;34;
47079;PMS5003;33067;49.296;14.470;2024-03-23T03:13:00;38;34;
47079;PMS5003;33067;49.296;14.470;2024-03-23T03:15:26;34;33;
47079;PMS5003;33067;49.296;14.470;2024-03-23T03:17:51;37;33;
47079;PMS5003;33067;49.296;14.470;2024-03-23T03:20:16;34;31;
47079;PMS5003;33067;49.296;14.470;2024-03-23T03:22:42;35;32;
47079;PMS5003;33067;49.296;14.470;2024-03-23T03:25:10;37;32;
47079;PMS5003;33067;49.296;14.470;2024-03-23T03:27:33;37;31;
47079;PMS5003;33067;49.296;14.470;2024-03-23T03:29:58;33;32;
47079;PMS5003;33067;49.296;14.470;2024-03-23T03:32:23;34;29;
47079;PMS5003;33067;49.296;14.470;2024-03-23T03:34:49;27;26;
47079;PMS5003;33067;49.296;14.470;2024-03-23T03:37:15;37;35;
47079;PMS5003;33067;49.296;14.470;2024-03-23T03:39:40;39;35;
47079;PMS5003;33067;49.296;14.470;2024-03-23T03:42:06;36;32;
47079;PMS5003;33067;49.296;14.470;2024-03-23T03:44:33;30;29;
47079;PMS5003;33067;49.296;14.470;2024-03-23T03:46:57;42;36;
47079;PMS5003;33067;49.296;14.470;2024-03-23T03:49:23;36;34;
47079;PMS5003;33067;49.296;14.470;2024-03-23T03:51:49;35;33;
47079;PMS5003;33067;49.296;14.470;2024-03-23T03:54:14;34;33;
47079;PMS5003;33067;49.296;14.470;2024-03-23T03:56:39;38;35;
47079;PMS5003;33067;49.296;14.470;2024-03-23T03:59:05;35;34;
47079;PMS5003;33067;49.296;14.470;2024-03-23T04:01:31;37;34;
47079;PMS5003;33067;49.296;14.470;2024-03-23T04:03:56;38;37;
47079;PMS5003;33067;49.296;14.470;2024-03-23T04:06:21;36;36;
47079;PMS5003;33067;49.296;14.470;2024-03-23T04:08:47;36;35;
47079;PMS5003;33067;49.296;14.470;2024-03-23T04:11:12;36;36;
47079;PMS5003;33067;49.296;14.470;2024-03-23T04:13:38;36;35;
47079;PMS5003;33067;49.296;14.470;2024-03-23T04:16:04;36;35;
47079;PMS5003;33067;49.296;14.470;2024-03-23T04:18:28;37;33;
47079;PMS5003;33067;49.296;14.470;2024-03-23T04:20:54;40;36;
47079;PMS5003;33067;49.296;14.470;2024-03-23T04:23:19;35;32;
47079;PMS5003;33067;49.296;14.470;2024-03-23T04:25:44;38;34;
47079;PMS5003;33067;49.296;14.470;2024-03-23T04:28:11;33;33;
47079;PMS5003;33067;49.296;14.470;2024-03-23T04:30:35;35;32;
47079;PMS5003;33067;49.296;14.470;2024-03-23T04:33:01;31;30;
47079;PMS5003;33067;49.296;14.470;2024-03-23T04:35:27;37;34;
47079;PMS5003;33067;49.296;14.470;2024-03-23T04:37:53;30;30;
47079;PMS5003;33067;49.296;14.470;2024-03-23T04:40:17;33;31;
47079;PMS5003;33067;49.296;14.470;2024-03-23T04:42:43;32;30;
47079;PMS5003;33067;49.296;14.470;2024-03-23T04:45:09;39;35;
47079;PMS5003;33067;49.296;14.470;2024-03-23T04:47:34;28;28;
47079;PMS5003;33067;49.296;14.470;2024-03-23T04:50:00;28;28;
47079;PMS5003;33067;49.296;14.470;2024-03-23T04:52:25;37;35;
47079;PMS5003;33067;49.296;14.470;2024-03-23T04:54:51;35;31;
47079;PMS5003;33067;49.296;14.470;2024-03-23T04:57:16;29;29;
47079;PMS5003;33067;49.296;14.470;2024-03-23T04:59:43;31;30;
47079;PMS5003;33067;49.296;14.470;2024-03-23T05:02:06;31;31;
47079;PMS5003;33067;49.296;14.470;2024-03-23T05:04:32;37;32;
47079;PMS5003;33067;49.296;14.470;2024-03-23T05:06:57;38;35;
47079;PMS5003;33067;49.296;14.470;2024-03-23T05:09:22;39;39;
47079;PMS5003;33067;49.296;14.470;2024-03-23T05:11:48;30;27;
47079;PMS5003;33067;49.296;14.470;2024-03-23T05:14:13;32;29;
47079;PMS5003;33067;49.296;14.470;2024-03-23T05:16:38;37;31;
47079;PMS5003;33067;49.296;14.470;2024-03-23T05:19:03;33;31;
47079;PMS5003;33067;49.296;14.470;2024-03-23T05:21:29;32;30;
47079;PMS5003;33067;49.296;14.470;2024-03-23T05:23:55;33;31;
47079;PMS5003;33067;49.296;14.470;2024-03-23T05:26:22;32;27;
47079;PMS5003;33067;49.296;14.470;2024-03-23T05:28:46;39;32;
47079;PMS5003;33067;49.296;14.470;2024-03-23T05:31:12;36;32;
47079;PMS5003;33067;49.296;14.470;2024-03-23T05:33:38;34;33;
47079;PMS5003;33067;49.296;14.470;2024-03-23T05:36:03;33;30;
47079;PMS5003;33067;49.296;14.470;2024-03-23T05:38:27;33;30;
47079;PMS5003;33067;49.296;14.470;2024-03-23T05:40:55;36;35;
47079;PMS5003;33067;49.296;14.470;2024-03-23T05:43:19;35;33;
47079;PMS5003;33067;49.296;14.470;2024-03-23T05:45:44;36;33;
47079;PMS5003;33067;49.296;14.470;2024-03-23T05:48:09;34;32;
47079;PMS5003;33067;49.296;14.470;2024-03-23T05:50:35;25;25;
47079;PMS5003;33067;49.296;14.470;2024-03-23T05:53:01;23;23;
47079;PMS5003;33067;49.296;14.470;2024-03-23T05:55:25;32;28;
47079;PMS5003;33067;49.296;14.470;2024-03-23T05:57:51;35;30;
47079;PMS5003;33067;49.296;14.470;2024-03-23T06:00:17;27;23;
47079;PMS5003;33067;49.296;14.470;2024-03-23T06:02:42;26;26;
47079;PMS5003;33067;49.296;14.470;2024-03-23T06:05:07;31;30;
47079;PMS5003;33067;49.296;14.470;2024-03-23T06:07:38;32;31;
47079;PMS5003;33067;49.296;14.470;2024-03-23T06:09:59;33;33;
47079;PMS5003;33067;49.296;14.470;2024-03-23T06:12:24;31;30;
47079;PMS5003;33067;49.296;14.470;2024-03-23T06:14:50;36;33;
47079;PMS5003;33067;49.296;14.470;2024-03-23T06:17:15;32;31;
47079;PMS5003;33067;49.296;14.470;2024-03-23T06:19:41;39;38;
47079;PMS5003;33067;49.296;14.470;2024-03-23T06:22:06;29;27;
47079;PMS5003;33067;49.296;14.470;2024-03-23T06:24:32;31;29;
47079;PMS5003;33067;49.296;14.470;2024-03-23T06:26:58;35;34;
47079;PMS5003;33067;49.296;14.470;2024-03-23T06:29:23;32;29;
47079;PMS5003;33067;49.296;14.470;2024-03-23T06:31:53;35;31;
47079;PMS5003;33067;49.296;14.470;2024-03-23T06:34:14;52;51;
47079;PMS5003;33067;49.296;14.470;2024-03-23T06:36:40;62;57;
47079;PMS5003;33067;49.296;14.470;2024-03-23T06:39:05;68;65;
47079;PMS5003;33067;49.296;14.470;2024-03-23T06:41:30;67;62;
47079;PMS5003;33067;49.296;14.470;2024-03-23T06:43:55;50;48;
47079;PMS5003;33067;49.296;14.470;2024-03-23T06:46:20;33;28;
47079;PMS5003;33067;49.296;14.470;2024-03-23T06:48:46;34;34;
47079;PMS5003;33067;49.296;14.470;2024-03-23T06:51:11;28;26;
47079;PMS5003;33067;49.296;14.470;2024-03-23T06:53:37;32;31;
47079;PMS5003;33067;49.296;14.470;2024-03-23T06:56:02;77;69;
47079;PMS5003;33067;49.296;14.470;2024-03-23T06:58:27;61;58;
47079;PMS5003;33067;49.296;14.470;2024-03-23T07:00:52;41;38;
47079;PMS5003;33067;49.296;14.470;2024-03-23T07:03:18;22;22;
47079;PMS5003;33067;49.296;14.470;2024-03-23T07:05:43;24;24;
47079;PMS5003;33067;49.296;14.470;2024-03-23T07:08:09;30;26;
47079;PMS5003;33067;49.296;14.470;2024-03-23T07:10:35;28;28;
47079;PMS5003;33067;49.296;14.470;2024-03-23T07:13:00;26;24;
47079;PMS5003;33067;49.296;14.470;2024-03-23T07:15:26;26;25;
47079;PMS5003;33067;49.296;14.470;2024-03-23T07:17:51;23;23;
47079;PMS5003;33067;49.296;14.470;2024-03-23T07:20:17;21;21;
47079;PMS5003;33067;49.296;14.470;2024-03-23T07:22:42;19;19;
47079;PMS5003;33067;49.296;14.470;2024-03-23T07:25:08;24;24;
47079;PMS5003;33067;49.296;14.470;2024-03-23T07:27:33;29;29;
47079;PMS5003;33067;49.296;14.470;2024-03-23T07:29:58;16;16;
47079;PMS5003;33067;49.296;14.470;2024-03-23T07:32:24;20;20;
47079;PMS5003;33067;49.296;14.470;2024-03-23T07:34:48;17;17;
47079;PMS5003;33067;49.296;14.470;2024-03-23T07:37:14;18;17;
47079;PMS5003;33067;49.296;14.470;2024-03-23T07:39:39;19;18;
47079;PMS5003;33067;49.296;14.470;2024-03-23T07:42:05;17;17;
47079;PMS5003;33067;49.296;14.470;2024-03-23T07:44:30;15;15;
47079;PMS5003;33067;49.296;14.470;2024-03-23T07:46:55;17;17;
47079;PMS5003;33067;49.296;14.470;2024-03-23T07:49:21;17;16;
47079;PMS5003;33067;49.296;14.470;2024-03-23T07:51:47;18;17;
47079;PMS5003;33067;49.296;14.470;2024-03-23T07:54:12;15;14;
47079;PMS5003;33067;49.296;14.470;2024-03-23T07:56:37;15;15;
47079;PMS5003;33067;49.296;14.470;2024-03-23T07:59:03;16;15;
47079;PMS5003;33067;49.296;14.470;2024-03-23T08:01:29;16;14;
47079;PMS5003;33067;49.296;14.470;2024-03-23T08:03:54;12;12;
47079;PMS5003;33067;49.296;14.470;2024-03-23T08:06:19;13;13;
47079;PMS5003;33067;49.296;14.470;2024-03-23T08:08:45;15;14;
47079;PMS5003;33067;49.296;14.470;2024-03-23T08:11:10;16;14;
47079;PMS5003;33067;49.296;14.470;2024-03-23T08:13:35;13;13;
47079;PMS5003;33067;49.296;14.470;2024-03-23T08:16:02;14;14;
47079;PMS5003;33067;49.296;14.470;2024-03-23T08:18:26;15;15;
47079;PMS5003;33067;49.296;14.470;2024-03-23T08:20:56;18;15;
47079;PMS5003;33067;49.296;14.470;2024-03-23T08:23:16;13;13;
47079;PMS5003;33067;49.296;14.470;2024-03-23T08:25:42;13;13;
47079;PMS5003;33067;49.296;14.470;2024-03-23T08:28:08;14;12;
47079;PMS5003;33067;49.296;14.470;2024-03-23T08:30:34;13;13;
47079;PMS5003;33067;49.296;14.470;2024-03-23T08:32:57;11;11;
47079;PMS5003;33067;49.296;14.470;2024-03-23T08:35:22;16;16;
47079;PMS5003;33067;49.296;14.470;2024-03-23T08:37:49;11;11;
47079;PMS5003;33067;49.296;14.470;2024-03-23T08:40:13;9;9;
47079;PMS5003;33067;49.296;14.470;2024-03-23T08:42:38;13;11;
47079;PMS5003;33067;49.296;14.470;2024-03-23T08:45:04;14;12;
47079;PMS5003;33067;49.296;14.470;2024-03-23T08:47:29;13;13;
47079;PMS5003;33067;49.296;14.470;2024-03-23T08:49:54;10;9;
47079;PMS5003;33067;49.296;14.470;2024-03-23T08:52:19;7;7;
47079;PMS5003;33067;49.296;14.470;2024-03-23T08:54:45;14;12;
47079;PMS5003;33067;49.296;14.470;2024-03-23T08:57:09;7;7;
47079;PMS5003;33067;49.296;14.470;2024-03-23T08:59:35;11;7;
47079;PMS5003;33067;49.296;14.470;2024-03-23T09:01:59;8;6;
47079;PMS5003;33067;49.296;14.470;2024-03-23T09:04:25;6;6;
47079;PMS5003;33067;49.296;14.470;2024-03-23T09:06:50;7;7;
47079;PMS5003;33067;49.296;14.470;2024-03-23T09:09:15;7;7;
47079;PMS5003;33067;49.296;14.470;2024-03-23T09:11:40;7;7;
47079;PMS5003;33067;49.296;14.470;2024-03-23T09:14:05;7;7;
47079;PMS5003;33067;49.296;14.470;2024-03-23T09:16:30;6;5;
47079;PMS5003;33067;49.296;14.470;2024-03-23T09:18:55;8;6;
47079;PMS5003;33067;49.296;14.470;2024-03-23T09:21:20;8;8;
47079;PMS5003;33067;49.296;14.470;2024-03-23T09:23:45;7;7;
47079;PMS5003;33067;49.296;14.470;2024-03-23T09:26:10;6;6;
47079;PMS5003;33067;49.296;14.470;2024-03-23T09:28:35;14;13;
47079;PMS5003;33067;49.296;14.470;2024-03-23T09:31:02;7;5;
47079;PMS5003;33067;49.296;14.470;2024-03-23T09:33:26;6;6;
47079;PMS5003;33067;49.296;14.470;2024-03-23T09:35:51;8;5;
47079;PMS5003;33067;49.296;14.470;2024-03-23T09:38:16;8;8;
47079;PMS5003;33067;49.296;14.470;2024-03-23T09:40:42;7;7;
47079;PMS5003;33067;49.296;14.470;2024-03-23T09:43:06;10;10;
47079;PMS5003;33067;49.296;14.470;2024-03-23T09:45:31;12;10;
47079;PMS5003;33067;49.296;14.470;2024-03-23T09:47:56;10;9;
47079;PMS5003;33067;49.296;14.470;2024-03-23T09:50:22;12;9;
47079;PMS5003;33067;49.296;14.470;2024-03-23T09:52:47;12;12;
47079;PMS5003;33067;49.296;14.470;2024-03-23T09:55:12;11;11;
47079;PMS5003;33067;49.296;14.470;2024-03-23T09:57:37;12;12;
47079;PMS5003;33067;49.296;14.470;2024-03-23T10:00:03;11;10;
47079;PMS5003;33067;49.296;14.470;2024-03-23T10:02:28;9;9;
47079;PMS5003;33067;49.296;14.470;2024-03-23T10:04:54;8;8;
47079;PMS5003;33067;49.296;14.470;2024-03-23T10:07:19;11;9;
47079;PMS5003;33067;49.296;14.470;2024-03-23T10:09:45;14;12;
47079;PMS5003;33067;49.296;14.470;2024-03-23T10:12:11;13;13;
47079;PMS5003;33067;49.296;14.470;2024-03-23T10:14:35;14;13;
47079;PMS5003;33067;49.296;14.470;2024-03-23T10:19:36;25;24;
47079;PMS5003;33067;49.296;14.470;2024-03-23T10:21:52;19;19;
47079;PMS5003;33067;49.296;14.470;2024-03-23T10:24:17;64;64;
47079;PMS5003;33067;49.296;14.470;2024-03-23T10:26:42;42;41;
47079;PMS5003;33067;49.296;14.470;2024-03-23T10:29:08;17;17;
47079;PMS5003;33067;49.296;14.470;2024-03-23T10:31:34;14;14;
47079;PMS5003;33067;49.296;14.470;2024-03-23T10:33:59;20;18;
47079;PMS5003;33067;49.296;14.470;2024-03-23T10:36:24;22;21;
47079;PMS5003;33067;49.296;14.470;2024-03-23T10:38:50;7;7;
47079;PMS5003;33067;49.296;14.470;2024-03-23T10:41:15;5;5;
47079;PMS5003;33067;49.296;14.470;2024-03-23T10:43:40;5;5;
47079;PMS5003;33067;49.296;14.470;2024-03-23T10:46:05;8;7;
47079;PMS5003;33067;49.296;14.470;2024-03-23T10:48:31;6;6;
47079;PMS5003;33067;49.296;14.470;2024-03-23T10:50:56;9;8;
47079;PMS5003;33067;49.296;14.470;2024-03-23T10:53:22;8;7;
47079;PMS5003;33067;49.296;14.470;2024-03-23T10:55:46;7;6;
47079;PMS5003;33067;49.296;14.470;2024-03-23T10:58:12;6;6;
47079;PMS5003;33067;49.296;14.470;2024-03-23T11:00:37;7;6;
47079;PMS5003;33067;49.296;14.470;2024-03-23T11:05:28;8;8;
47079;PMS5003;33067;49.296;14.470;2024-03-23T11:07:53;5;5;
47079;PMS5003;33067;49.296;14.470;2024-03-23T11:12:43;6;6;
47079;PMS5003;33067;49.296;14.470;2024-03-23T11:15:10;4;4;
47079;PMS5003;33067;49.296;14.470;2024-03-23T11:17:33;4;4;
47079;PMS5003;33067;49.296;14.470;2024-03-23T11:19:59;6;6;
47079;PMS5003;33067;49.296;14.470;2024-03-23T11:24:49;5;5;
47079;PMS5003;33067;49.296;14.470;2024-03-23T11:27:15;7;7;
47079;PMS5003;33067;49.296;14.470;2024-03-23T11:29:40;8;8;
47079;PMS5003;33067;49.296;14.470;2024-03-23T11:32:05;17;13;
47079;PMS5003;33067;49.296;14.470;2024-03-23T11:34:30;11;11;
47079;PMS5003;33067;49.296;14.470;2024-03-23T11:39:21;13;12;
47079;PMS5003;33067;49.296;14.470;2024-03-23T11:41:46;22;22;
47079;PMS5003;33067;49.296;14.470;2024-03-23T11:44:14;19;17;
47079;PMS5003;33067;49.296;14.470;2024-03-23T11:46:36;12;12;
47079;PMS5003;33067;49.296;14.470;2024-03-23T11:49:02;12;12;
47079;PMS5003;33067;49.296;14.470;2024-03-23T11:51:27;23;21;
47079;PMS5003;33067;49.296;14.470;2024-03-23T11:53:52;17;16;
47079;PMS5003;33067;49.296;14.470;2024-03-23T11:56:23;12;12;
47079;PMS5003;33067;49.296;14.470;2024-03-23T11:58:43;13;13;
47079;PMS5003;33067;49.296;14.470;2024-03-23T12:01:09;21;21;
47079;PMS5003;33067;49.296;14.470;2024-03-23T12:03:33;23;21;
47079;PMS5003;33067;49.296;14.470;2024-03-23T12:06:00;17;16;
47079;PMS5003;33067;49.296;14.470;2024-03-23T12:08:25;15;15;
47079;PMS5003;33067;49.296;14.470;2024-03-23T12:10:51;16;16;
47079;PMS5003;33067;49.296;14.470;2024-03-23T12:13:16;24;22;
47079;PMS5003;33067;49.296;14.470;2024-03-23T12:15:42;14;12;
47079;PMS5003;33067;49.296;14.470;2024-03-23T12:18:06;31;30;
47079;PMS5003;33067;49.296;14.470;2024-03-23T12:20:31;21;21;
47079;PMS5003;33067;49.296;14.470;2024-03-23T12:25:22;13;13;
47079;PMS5003;33067;49.296;14.470;2024-03-23T12:27:48;26;26;
47079;PMS5003;33067;49.296;14.470;2024-03-23T12:30:13;13;13;
47079;PMS5003;33067;49.296;14.470;2024-03-23T12:32:38;25;24;
47079;PMS5003;33067;49.296;14.470;2024-03-23T12:35:04;17;17;
47079;PMS5003;33067;49.296;14.470;2024-03-23T12:37:29;13;13;
47079;PMS5003;33067;49.296;14.470;2024-03-23T12:39:54;32;32;
47079;PMS5003;33067;49.296;14.470;2024-03-23T12:42:20;11;11;
47079;PMS5003;33067;49.296;14.470;2024-03-23T12:44:45;14;14;
47079;PMS5003;33067;49.296;14.470;2024-03-23T12:47:10;14;12;
47079;PMS5003;33067;49.296;14.470;2024-03-23T12:49:36;27;25;
47079;PMS5003;33067;49.296;14.470;2024-03-23T12:52:01;23;23;
47079;PMS5003;33067;49.296;14.470;2024-03-23T12:54:26;24;23;
47079;PMS5003;33067;49.296;14.470;2024-03-23T12:56:52;5;5;
47079;PMS5003;33067;49.296;14.470;2024-03-23T12:59:17;5;4;
47079;PMS5003;33067;49.296;14.470;2024-03-23T13:01:42;4;4;
47079;PMS5003;33067;49.296;14.470;2024-03-23T13:04:07;5;4;
47079;PMS5003;33067;49.296;14.470;2024-03-23T13:06:33;4;4;
47079;PMS5003;33067;49.296;14.470;2024-03-23T13:09:03;4;4;
47079;PMS5003;33067;49.296;14.470;2024-03-23T13:11:23;10;10;
47079;PMS5003;33067;49.296;14.470;2024-03-23T13:13:49;8;7;
47079;PMS5003;33067;49.296;14.470;2024-03-23T13:16:14;6;6;
47079;PMS5003;33067;49.296;14.470;2024-03-23T13:18:39;7;7;
47079;PMS5003;33067;49.296;14.470;2024-03-23T13:21:05;8;6;
47079;PMS5003;33067;49.296;14.470;2024-03-23T13:23:29;11;11;
47079;PMS5003;33067;49.296;14.470;2024-03-23T13:25:55;10;9;
47079;PMS5003;33067;49.296;14.470;2024-03-23T13:28:21;8;7;
47079;PMS5003;33067;49.296;14.470;2024-03-23T13:30:54;10;8;
47079;PMS5003;33067;49.296;14.470;2024-03-23T13:33:13;8;7;
47079;PMS5003;33067;49.296;14.470;2024-03-23T13:35:36;11;11;
47079;PMS5003;33067;49.296;14.470;2024-03-23T13:38:03;12;10;
47079;PMS5003;33067;49.296;14.470;2024-03-23T13:40:30;7;6;
47079;PMS5003;33067;49.296;14.470;2024-03-23T13:42:52;7;7;
47079;PMS5003;33067;49.296;14.470;2024-03-23T13:45:17;3;3;
47079;PMS5003;33067;49.296;14.470;2024-03-23T13:48:00;5;5;
47079;PMS5003;33067;49.296;14.470;2024-03-23T13:50:09;4;4;
47079;PMS5003;33067;49.296;14.470;2024-03-23T13:52:33;2;2;
47079;PMS5003;33067;49.296;14.470;2024-03-23T13:54:58;2;2;
47079;PMS5003;33067;49.296;14.470;2024-03-23T13:57:24;3;3;
47079;PMS5003;33067;49.296;14.470;2024-03-23T13:59:49;2;2;
47079;PMS5003;33067;49.296;14.470;2024-03-23T14:02:14;3;3;
47079;PMS5003;33067;49.296;14.470;2024-03-23T14:04:40;5;3;
47079;PMS5003;33067;49.296;14.470;2024-03-23T14:07:05;6;5;
47079;PMS5003;33067;49.296;14.470;2024-03-23T14:09:31;5;3;
47079;PMS5003;33067;49.296;14.470;2024-03-23T14:11:56;4;4;
47079;PMS5003;33067;49.296;14.470;2024-03-23T14:14:21;6;6;
47079;PMS5003;33067;49.296;14.470;2024-03-23T14:16:47;9;9;
47079;PMS5003;33067;49.296;14.470;2024-03-23T14:19:13;7;7;
47079;PMS5003;33067;49.296;14.470;2024-03-23T14:21:37;7;7;
47079;PMS5003;33067;49.296;14.470;2024-03-23T14:24:02;9;9;
47079;PMS5003;33067;49.296;14.470;2024-03-23T14:26:28;6;5;
47079;PMS5003;33067;49.296;14.470;2024-03-23T14:28:53;7;7;
47079;PMS5003;33067;49.296;14.470;2024-03-23T14:31:20;5;5;
47079;PMS5003;33067;49.296;14.470;2024-03-23T14:33:44;8;7;
47079;PMS5003;33067;49.296;14.470;2024-03-23T14:36:09;10;10;
47079;PMS5003;33067;49.296;14.470;2024-03-23T14:38:34;16;16;
47079;PMS5003;33067;49.296;14.470;2024-03-23T14:41:00;14;13;
47079;PMS5003;33067;49.296;14.470;2024-03-23T14:43:26;12;12;
47079;PMS5003;33067;49.296;14.470;2024-03-23T14:48:16;10;10;
47079;PMS5003;33067;49.296;14.470;2024-03-23T14:50:41;14;13;
47079;PMS5003;33067;49.296;14.470;2024-03-23T14:53:06;12;12;
47079;PMS5003;33067;49.296;14.470;2024-03-23T14:55:31;10;9;
47079;PMS5003;33067;49.296;14.470;2024-03-23T14:57:57;13;13;
47079;PMS5003;33067;49.296;14.470;2024-03-23T15:00:22;9;9;
47079;PMS5003;33067;49.296;14.470;2024-03-23T15:02:50;5;5;
47079;PMS5003;33067;49.296;14.470;2024-03-23T15:05:14;10;9;
47079;PMS5003;33067;49.296;14.470;2024-03-23T15:07:40;7;7;
47079;PMS5003;33067;49.296;14.470;2024-03-23T15:10:04;9;7;
47079;PMS5003;33067;49.296;14.470;2024-03-23T15:12:29;7;5;
47079;PMS5003;33067;49.296;14.470;2024-03-23T15:14:55;6;6;
47079;PMS5003;33067;49.296;14.470;2024-03-23T15:17:20;5;5;
47079;PMS5003;33067;49.296;14.470;2024-03-23T15:19:45;5;5;
47079;PMS5003;33067;49.296;14.470;2024-03-23T15:22:11;4;4;
47079;PMS5003;33067;49.296;14.470;2024-03-23T15:24:36;7;7;
47079;PMS5003;33067;49.296;14.470;2024-03-23T15:27:01;6;6;
47079;PMS5003;33067;49.296;14.470;2024-03-23T15:29:27;6;6;
47079;PMS5003;33067;49.296;14.470;2024-03-23T15:31:52;5;5;
47079;PMS5003;33067;49.296;14.470;2024-03-23T15:34:17;8;6;
47079;PMS5003;33067;49.296;14.470;2024-03-23T15:36:42;7;7;
47079;PMS5003;33067;49.296;14.470;2024-03-23T15:39:08;7;5;
47079;PMS5003;33067;49.296;14.470;2024-03-23T15:41:33;9;9;
47079;PMS5003;33067;49.296;14.470;2024-03-23T15:43:59;41;34;
47079;PMS5003;33067;49.296;14.470;2024-03-23T15:46:24;19;16;
47079;PMS5003;33067;49.296;14.470;2024-03-23T15:48:49;7;7;
47079;PMS5003;33067;49.296;14.470;2024-03-23T15:51:15;5;5;
47079;PMS5003;33067;49.296;14.470;2024-03-23T15:53:40;6;5;
47079;PMS5003;33067;49.296;14.470;2024-03-23T15:56:06;11;11;
47079;PMS5003;33067;49.296;14.470;2024-03-23T15:58:31;6;4;
47079;PMS5003;33067;49.296;14.470;2024-03-23T16:00:57;11;11;
47079;PMS5003;33067;49.296;14.470;2024-03-23T16:03:22;6;6;
47079;PMS5003;33067;49.296;14.470;2024-03-23T16:05:50;9;8;
47079;PMS5003;33067;49.296;14.470;2024-03-23T16:08:13;6;5;
47079;PMS5003;33067;49.296;14.470;2024-03-23T16:10:38;6;6;
47079;PMS5003;33067;49.296;14.470;2024-03-23T16:13:03;7;7;
47079;PMS5003;33067;49.296;14.470;2024-03-23T16:15:29;11;11;
47079;PMS5003;33067;49.296;14.470;2024-03-23T16:17:54;8;8;
47079;PMS5003;33067;49.296;14.470;2024-03-23T16:20:19;5;5;
47079;PMS5003;33067;49.296;14.470;2024-03-23T16:22:44;7;7;
47079;PMS5003;33067;49.296;14.470;2024-03-23T16:25:10;4;4;
47079;PMS5003;33067;49.296;14.470;2024-03-23T16:27:35;7;5;
47079;PMS5003;33067;49.296;14.470;2024-03-23T16:30:00;8;8;
47079;PMS5003;33067;49.296;14.470;2024-03-23T16:32:26;8;8;
47079;PMS5003;33067;49.296;14.470;2024-03-23T16:34:51;10;10;
47079;PMS5003;33067;49.296;14.470;2024-03-23T16:37:16;12;8;
47079;PMS5003;33067;49.296;14.470;2024-03-23T16:39:42;12;11;
47079;PMS5003;33067;49.296;14.470;2024-03-23T16:42:07;12;10;
47079;PMS5003;33067;49.296;14.470;2024-03-23T16:44:32;10;9;
47079;PMS5003;33067;49.296;14.470;2024-03-23T16:46:57;13;13;
47079;PMS5003;33067;49.296;14.470;2024-03-23T16:49:22;8;8;
47079;PMS5003;33067;49.296;14.470;2024-03-23T16:51:48;9;9;
47079;PMS5003;33067;49.296;14.470;2024-03-23T16:54:13;8;8;
47079;PMS5003;33067;49.296;14.470;2024-03-23T16:56:38;9;7;
47079;PMS5003;33067;49.296;14.470;2024-03-23T16:59:04;13;11;
47079;PMS5003;33067;49.296;14.470;2024-03-23T17:01:30;5;5;
47079;PMS5003;33067;49.296;14.470;2024-03-23T17:03:55;8;8;
47079;PMS5003;33067;49.296;14.470;2024-03-23T17:06:20;5;5;
47079;PMS5003;33067;49.296;14.470;2024-03-23T17:08:46;6;6;